Firdale, Washington
Current Conditions -  °F | °C
As of 12:01 AM on Friday 28 Nov 2014 (Local Time) from KHQM Reporting Station
Light Rain Light Rain  
Wind Chill: 55°   Ceiling: 1400
Heat Index: 55°   Visibility: 7mi
Dew Point: 53°   Wind: 21mph
Humidity: 93%   Direction: 180°S
Pressure: 29.7"   Gusts: 28mph
Location:  46.6563°N, 123.58°W
Report Text: KHQM 280801Z AUTO 18018G24KT 7SM -RA BKN014 BKN021 OVC060 13/12 A2970 RMK AO2 P0000 T01280117
Loading
Personal Weather Stations






























Interactive Weather Map New forecast layout! Learn more

10-Day Weather Forecast

Advertisements
Track Severe Weather on mobile